createdAt,value
2019-03-15T00:00:11.066Z,6.41
2019-03-15T00:01:11.027Z,6.41
2019-03-15T00:02:11.005Z,6.41
2019-03-15T00:03:11.031Z,6.41
2019-03-15T00:04:11.556Z,6.43
2019-03-15T00:05:11.044Z,6.41
2019-03-15T00:06:11.024Z,6.43
2019-03-15T00:07:11.045Z,6.45
2019-03-15T00:08:11.028Z,6.45
2019-03-15T00:09:11.089Z,6.45
2019-03-15T00:10:11.141Z,6.43
2019-03-15T00:11:11.859Z,6.46
2019-03-15T00:12:11.101Z,6.47
2019-03-15T00:13:11.105Z,6.48
2019-03-15T00:14:11.062Z,6.51
2019-03-15T00:15:11.026Z,6.48
2019-03-15T00:16:11.031Z,6.49
2019-03-15T00:17:11.038Z,6.5
2019-03-15T00:18:11.086Z,6.5
2019-03-15T00:19:13.098Z,6.49
2019-03-15T00:20:11.115Z,6.48
2019-03-15T00:21:10.971Z,6.51
2019-03-15T00:22:11.009Z,6.51
2019-03-15T00:23:11.081Z,6.48
2019-03-15T00:24:10.983Z,6.51
2019-03-15T00:25:11.946Z,6.49
2019-03-15T00:26:10.998Z,6.51
2019-03-15T00:27:11.191Z,6.51
2019-03-15T00:28:11.088Z,6.52
2019-03-15T00:29:11.051Z,6.52
2019-03-15T00:30:11.032Z,6.53
2019-03-15T00:31:11.037Z,6.53
2019-03-15T00:32:11.198Z,6.52
2019-03-15T00:33:10.981Z,6.53
2019-03-15T00:34:10.950Z,6.53
2019-03-15T00:35:10.989Z,6.52
2019-03-15T00:36:10.995Z,6.53
2019-03-15T00:37:11.208Z,6.52
2019-03-15T00:38:10.980Z,6.53
2019-03-15T00:39:10.965Z,6.55
2019-03-15T00:40:11.068Z,6.54
2019-03-15T00:41:11.422Z,6.54
2019-03-15T00:42:11.145Z,6.57
2019-03-15T00:43:10.984Z,6.56
2019-03-15T00:44:10.977Z,6.59
2019-03-15T00:45:10.964Z,6.61
2019-03-15T00:46:11.024Z,6.62
2019-03-15T00:47:10.971Z,6.63
2019-03-15T00:48:12.178Z,6.63
2019-03-15T00:49:11.108Z,6.63
2019-03-15T00:50:11.007Z,6.62
2019-03-15T00:51:10.943Z,6.62
2019-03-15T00:52:11.000Z,6.6
2019-03-15T00:53:10.933Z,6.61
2019-03-15T00:54:10.963Z,6.6
2019-03-15T00:55:10.947Z,6.59
2019-03-15T00:56:12.058Z,6.58
2019-03-15T00:57:10.931Z,6.58
2019-03-15T00:58:10.964Z,6.57
2019-03-15T00:59:10.944Z,6.59
2019-03-15T01:00:10.910Z,6.55
2019-03-15T01:01:10.932Z,6.56
2019-03-15T01:02:11.816Z,6.54
2019-03-15T01:03:10.946Z,6.55
2019-03-15T01:04:10.904Z,6.53
2019-03-15T01:05:11.002Z,6.54
2019-03-15T01:06:10.943Z,6.55
2019-03-15T01:07:10.904Z,6.52
2019-03-15T01:08:11.855Z,6.53
2019-03-15T01:09:10.947Z,6.51
2019-03-15T01:10:10.908Z,6.52
2019-03-15T01:11:10.900Z,6.51
2019-03-15T01:12:10.962Z,6.51
2019-03-15T01:13:11.040Z,6.49
2019-03-15T01:14:10.949Z,6.51
2019-03-15T01:15:11.370Z,6.48
2019-03-15T01:16:11.027Z,6.5
2019-03-15T01:17:10.971Z,6.49
2019-03-15T01:18:10.937Z,6.46
2019-03-15T01:19:10.978Z,6.47
2019-03-15T01:20:10.911Z,6.44
2019-03-15T01:21:11.047Z,6.43
2019-03-15T01:22:10.946Z,6.43
2019-03-15T01:23:10.903Z,6.41
2019-03-15T01:24:10.987Z,6.4
2019-03-15T01:25:10.877Z,6.42
2019-03-15T01:26:10.978Z,6.4
2019-03-15T01:27:10.930Z,6.39
2019-03-15T01:28:10.903Z,6.4
2019-03-15T01:29:11.069Z,6.41
2019-03-15T01:30:11.037Z,6.4
2019-03-15T01:31:10.902Z,6.39
2019-03-15T01:32:10.937Z,6.39
2019-03-15T01:33:10.877Z,6.39
2019-03-15T01:34:10.977Z,6.37
2019-03-15T01:35:10.922Z,6.39
2019-03-15T01:36:10.901Z,6.37
2019-03-15T01:37:10.922Z,6.38
2019-03-15T01:38:11.109Z,6.39
2019-03-15T01:39:11.475Z,6.38
2019-03-15T01:40:10.983Z,6.36
2019-03-15T01:41:10.882Z,6.37
2019-03-15T01:42:10.876Z,6.37
2019-03-15T01:43:10.910Z,6.43
2019-03-15T01:44:10.871Z,6.42
2019-03-15T01:45:10.958Z,6.42
2019-03-15T01:46:11.040Z,6.44
2019-03-15T01:47:10.872Z,6.41
2019-03-15T01:48:10.925Z,6.44
2019-03-15T01:49:11.082Z,6.41
2019-03-15T01:50:10.885Z,6.41
2019-03-15T01:51:10.918Z,6.43
2019-03-15T01:52:10.868Z,6.41
2019-03-15T01:53:10.914Z,6.44
2019-03-15T01:54:10.870Z,6.43
2019-03-15T01:55:10.877Z,6.41
2019-03-15T01:56:10.873Z,6.41
2019-03-15T01:57:10.913Z,6.41
2019-03-15T01:58:10.836Z,6.41
2019-03-15T01:59:11.144Z,6.41
2019-03-15T02:00:10.912Z,6.4
2019-03-15T02:01:10.873Z,6.43
2019-03-15T02:02:10.832Z,6.45
2019-03-15T02:03:10.836Z,6.45
2019-03-15T02:04:10.867Z,6.45
2019-03-15T02:05:10.854Z,6.45
2019-03-15T02:06:10.854Z,6.45
2019-03-15T02:07:10.860Z,6.45
2019-03-15T02:08:10.862Z,6.47
2019-03-15T02:09:10.902Z,6.46
2019-03-15T02:10:11.416Z,6.46
2019-03-15T02:11:10.827Z,6.46
2019-03-15T02:12:10.847Z,6.46
2019-03-15T02:13:10.955Z,6.46
2019-03-15T02:14:10.833Z,6.47
2019-03-15T02:15:10.824Z,6.47
2019-03-15T02:16:10.814Z,6.47
2019-03-15T02:17:10.819Z,6.46
2019-03-15T02:18:10.807Z,6.45
2019-03-15T02:19:10.851Z,6.45
2019-03-15T02:20:11.381Z,6.45
2019-03-15T02:21:11.201Z,6.46
2019-03-15T02:22:10.867Z,6.46
2019-03-15T02:23:10.788Z,6.45
2019-03-15T02:24:10.817Z,6.45
2019-03-15T02:25:10.827Z,6.46
2019-03-15T02:26:10.833Z,6.44
2019-03-15T02:27:10.922Z,6.43
2019-03-15T02:28:10.870Z,6.43
2019-03-15T02:29:10.826Z,6.41
2019-03-15T02:30:10.905Z,6.43
2019-03-15T02:31:10.863Z,6.43
2019-03-15T02:32:10.848Z,6.41
2019-03-15T02:33:10.854Z,6.44
2019-03-15T02:34:10.844Z,6.44
2019-03-15T02:35:10.943Z,6.44
2019-03-15T02:36:10.893Z,6.42
2019-03-15T02:37:10.854Z,6.43
2019-03-15T02:38:10.867Z,6.44
2019-03-15T02:39:10.819Z,6.44
2019-03-15T02:40:10.870Z,6.46
2019-03-15T02:41:10.811Z,6.46
2019-03-15T02:42:10.898Z,6.48
2019-03-15T02:43:10.750Z,6.46
2019-03-15T02:44:13.097Z,6.46
2019-03-15T02:45:10.840Z,6.46
2019-03-15T02:46:10.847Z,6.47
2019-03-15T02:47:10.888Z,6.49
2019-03-15T02:48:10.830Z,6.47
2019-03-15T02:49:10.807Z,6.46
2019-03-15T02:50:10.787Z,6.46
2019-03-15T02:51:11.001Z,6.46
2019-03-15T02:52:10.792Z,6.46
2019-03-15T02:53:10.805Z,6.48
2019-03-15T02:54:10.787Z,6.47
2019-03-15T02:55:10.725Z,6.5
2019-03-15T02:56:10.790Z,6.48
2019-03-15T02:57:10.779Z,6.48
2019-03-15T02:58:10.827Z,6.47
2019-03-15T02:59:10.958Z,6.48
2019-03-15T03:00:10.770Z,6.47
2019-03-15T03:01:10.736Z,6.47
2019-03-15T03:02:10.800Z,6.49
2019-03-15T03:03:10.806Z,6.49
2019-03-15T03:04:11.239Z,6.47
2019-03-15T03:05:10.974Z,6.48
2019-03-15T03:06:10.822Z,6.48
2019-03-15T03:07:10.824Z,6.53
2019-03-15T03:08:10.782Z,6.54
2019-03-15T03:09:10.837Z,6.54
2019-03-15T03:10:10.793Z,6.54
2019-03-15T03:11:10.750Z,6.56
2019-03-15T03:12:10.778Z,6.56
2019-03-15T03:13:11.317Z,6.57
2019-03-15T03:14:10.787Z,6.57
2019-03-15T03:15:10.756Z,6.57
2019-03-15T03:16:10.833Z,6.59
2019-03-15T03:17:10.786Z,6.62
2019-03-15T03:18:10.756Z,6.63
2019-03-15T03:19:10.786Z,6.63
2019-03-15T03:20:10.755Z,6.66
2019-03-15T03:21:10.724Z,6.7
2019-03-15T03:22:10.796Z,6.72
2019-03-15T03:23:10.711Z,6.73
2019-03-15T03:24:10.782Z,6.73
2019-03-15T03:25:10.812Z,6.74
2019-03-15T03:26:10.845Z,6.73
2019-03-15T03:27:10.793Z,6.73
2019-03-15T03:28:10.787Z,6.73
2019-03-15T03:29:11.197Z,6.75
2019-03-15T03:30:11.335Z,6.75
2019-03-15T03:31:10.881Z,6.74
2019-03-15T03:32:14.939Z,6.77
2019-03-15T03:33:13.234Z,6.75
2019-03-15T03:34:13.689Z,6.78
2019-03-15T03:35:12.965Z,6.8
2019-03-15T03:36:10.744Z,6.8
2019-03-15T03:37:10.707Z,6.81
2019-03-15T03:38:12.919Z,6.83
2019-03-15T03:39:10.696Z,6.86
2019-03-15T03:40:10.770Z,6.85
2019-03-15T03:41:11.037Z,6.85
2019-03-15T03:42:10.756Z,6.85
2019-03-15T03:43:10.730Z,6.88
2019-03-15T03:44:10.742Z,6.91
2019-03-15T03:45:10.664Z,6.9
2019-03-15T03:46:10.703Z,6.92
2019-03-15T03:47:10.680Z,6.91
2019-03-15T03:48:10.695Z,6.9
2019-03-15T03:49:10.691Z,6.9
2019-03-15T03:50:10.691Z,6.9
2019-03-15T03:51:10.714Z,6.9
2019-03-15T03:52:10.859Z,6.9
2019-03-15T03:53:10.763Z,6.92
2019-03-15T03:54:10.721Z,6.9
2019-03-15T03:55:10.719Z,6.92
2019-03-15T03:56:10.666Z,6.89
2019-03-15T03:57:10.934Z,6.9
2019-03-15T03:58:10.677Z,6.9
2019-03-15T03:59:10.868Z,6.88
2019-03-15T04:00:10.696Z,6.89
2019-03-15T04:01:10.734Z,6.89
2019-03-15T04:02:10.744Z,6.89
2019-03-15T04:03:10.670Z,6.9
2019-03-15T04:04:10.673Z,6.91
2019-03-15T04:05:10.688Z,6.9
2019-03-15T04:06:10.796Z,6.91
2019-03-15T04:07:10.721Z,6.91
2019-03-15T04:08:10.770Z,6.91
2019-03-15T04:09:10.690Z,6.95
2019-03-15T04:10:10.693Z,6.93
2019-03-15T04:11:10.708Z,6.95
2019-03-15T04:12:10.974Z,6.94
2019-03-15T04:13:10.660Z,6.92
2019-03-15T04:14:10.678Z,6.93
2019-03-15T04:15:10.654Z,6.92
2019-03-15T04:16:10.654Z,6.95
2019-03-15T04:17:10.649Z,6.95
2019-03-15T04:18:10.648Z,6.95
2019-03-15T04:19:10.708Z,6.95
2019-03-15T04:20:10.640Z,6.98
2019-03-15T04:21:10.744Z,6.98
2019-03-15T04:22:10.663Z,7
2019-03-15T04:23:10.752Z,7
2019-03-15T04:24:10.728Z,7
2019-03-15T04:25:10.702Z,7
2019-03-15T04:26:10.705Z,7.01
2019-03-15T04:27:10.735Z,7.03
2019-03-15T04:28:10.622Z,7.02
2019-03-15T04:29:10.650Z,7.06
2019-03-15T04:30:10.664Z,7.07
2019-03-15T04:31:10.612Z,7.06
2019-03-15T04:32:10.643Z,7.07
2019-03-15T04:33:10.675Z,7.07
2019-03-15T04:34:10.655Z,7.08
2019-03-15T04:35:10.644Z,7.09
2019-03-15T04:36:10.663Z,7.09
2019-03-15T04:37:10.624Z,7.12
2019-03-15T04:38:10.637Z,7.1
2019-03-15T04:39:14.588Z,7.12
2019-03-15T04:40:10.712Z,7.12
2019-03-15T04:41:10.653Z,7.13
2019-03-15T04:42:10.749Z,7.13
2019-03-15T04:43:10.618Z,7.15
2019-03-15T04:44:10.726Z,7.17
2019-03-15T04:45:10.625Z,7.15
2019-03-15T04:46:10.609Z,7.15
2019-03-15T04:47:10.635Z,7.15
2019-03-15T04:48:10.608Z,7.16
2019-03-15T04:49:10.705Z,7.15
2019-03-15T04:50:10.637Z,7.15
2019-03-15T04:51:10.723Z,7.15
2019-03-15T04:52:10.651Z,7.15
2019-03-15T04:53:10.632Z,7.17
2019-03-15T04:54:10.587Z,7.15
2019-03-15T04:55:10.669Z,7.14
2019-03-15T04:56:10.589Z,7.14
2019-03-15T04:57:10.680Z,7.14
2019-03-15T04:58:10.996Z,7.15
2019-03-15T04:59:10.614Z,7.17
2019-03-15T05:00:10.596Z,7.14
2019-03-15T05:01:10.587Z,7.15
2019-03-15T05:02:10.571Z,7.15
2019-03-15T05:03:10.582Z,7.16
2019-03-15T05:04:10.588Z,7.18
2019-03-15T05:05:10.629Z,7.18
2019-03-15T05:06:10.602Z,7.16
2019-03-15T05:07:10.563Z,7.15
2019-03-15T05:08:10.576Z,7.16
2019-03-15T05:09:10.608Z,7.18
2019-03-15T05:10:10.633Z,7.18
2019-03-15T05:11:10.579Z,7.18
2019-03-15T05:12:10.652Z,7.17
2019-03-15T05:13:10.645Z,7.17
2019-03-15T05:14:10.556Z,7.2
2019-03-15T05:15:10.576Z,7.2
2019-03-15T05:16:10.593Z,7.2
2019-03-15T05:17:10.597Z,7.2
2019-03-15T05:18:10.602Z,7.21
2019-03-15T05:19:10.828Z,7.21
2019-03-15T05:20:10.622Z,7.21
2019-03-15T05:21:10.589Z,7.22
2019-03-15T05:22:10.612Z,7.23
2019-03-15T05:23:10.602Z,7.22
2019-03-15T05:24:10.630Z,7.22
2019-03-15T05:25:10.542Z,7.21
2019-03-15T05:26:10.589Z,7.21
2019-03-15T05:27:10.599Z,7.23
2019-03-15T05:28:10.657Z,7.21
2019-03-15T05:29:10.555Z,7.21
2019-03-15T05:30:10.605Z,7.21
2019-03-15T05:31:10.634Z,7.21
2019-03-15T05:32:10.663Z,7.22
2019-03-15T05:33:10.521Z,7.22
2019-03-15T05:34:10.590Z,7.27
2019-03-15T05:35:10.583Z,7.25
2019-03-15T05:36:10.538Z,7.26
2019-03-15T05:37:10.520Z,7.28
2019-03-15T05:38:10.551Z,7.28
2019-03-15T05:39:10.560Z,7.28
2019-03-15T05:40:10.573Z,7.27
2019-03-15T05:41:10.621Z,7.25
2019-03-15T05:42:10.734Z,7.26
2019-03-15T05:43:10.535Z,7.28
2019-03-15T05:44:10.560Z,7.26
2019-03-15T05:45:10.539Z,7.27
2019-03-15T05:46:10.527Z,7.28
2019-03-15T05:47:10.535Z,7.27
2019-03-15T05:48:10.533Z,7.26
2019-03-15T05:49:10.576Z,7.26
2019-03-15T05:50:10.541Z,7.27
2019-03-15T05:51:10.507Z,7.26
2019-03-15T05:52:10.552Z,7.26
2019-03-15T05:53:10.515Z,7.26
2019-03-15T05:54:10.732Z,7.26
2019-03-15T05:55:10.515Z,7.26
2019-03-15T05:56:10.526Z,7.25
2019-03-15T05:57:10.497Z,7.26
2019-03-15T05:58:10.509Z,7.23
2019-03-15T05:59:10.532Z,7.26
2019-03-15T06:00:10.522Z,7.23
2019-03-15T06:01:10.596Z,7.23
2019-03-15T06:02:10.567Z,7.25
2019-03-15T06:03:13.142Z,7.22
2019-03-15T06:04:10.648Z,7.22
2019-03-15T06:05:10.520Z,7.22
2019-03-15T06:06:10.510Z,7.22
2019-03-15T06:07:10.474Z,7.21
2019-03-15T06:08:10.493Z,7.22
2019-03-15T06:09:10.494Z,7.25
2019-03-15T06:10:10.665Z,7.22
2019-03-15T06:11:10.530Z,7.22
2019-03-15T06:12:10.490Z,7.22
2019-03-15T06:13:10.595Z,7.22
2019-03-15T06:14:10.613Z,7.22
2019-03-15T06:15:10.621Z,7.23
2019-03-15T06:16:10.497Z,7.22
2019-03-15T06:17:10.476Z,7.25
2019-03-15T06:18:10.503Z,7.22
2019-03-15T06:19:10.511Z,7.22
2019-03-15T06:20:10.525Z,7.22
2019-03-15T06:21:10.627Z,7.22
2019-03-15T06:22:10.492Z,7.24
2019-03-15T06:23:10.479Z,7.22
2019-03-15T06:24:10.578Z,7.22
2019-03-15T06:25:10.648Z,7.25
2019-03-15T06:26:10.703Z,7.22
2019-03-15T06:27:10.532Z,7.25
2019-03-15T06:28:10.547Z,7.24
2019-03-15T06:29:10.473Z,7.24
2019-03-15T06:30:10.464Z,7.24
2019-03-15T06:31:10.513Z,7.22
2019-03-15T06:32:10.478Z,7.22
2019-03-15T06:33:10.481Z,7.23
2019-03-15T06:34:10.456Z,7.23
2019-03-15T06:35:10.543Z,7.22
2019-03-15T06:36:10.608Z,7.21
2019-03-15T06:37:10.515Z,7.21
2019-03-15T06:38:10.495Z,7.22
2019-03-15T06:39:10.507Z,7.22
2019-03-15T06:40:14.367Z,7.23
2019-03-15T06:41:10.456Z,7.22
2019-03-15T06:42:10.501Z,7.24
2019-03-15T06:43:13.952Z,7.22
2019-03-15T06:44:10.429Z,7.22
2019-03-15T06:45:10.451Z,7.25
2019-03-15T06:46:10.469Z,7.23
2019-03-15T06:47:10.725Z,7.25
2019-03-15T06:48:10.811Z,7.26
2019-03-15T06:49:10.420Z,7.24
2019-03-15T06:50:10.494Z,7.26
2019-03-15T06:51:10.443Z,7.24
2019-03-15T06:52:10.442Z,7.27
2019-03-15T06:53:10.481Z,7.27
2019-03-15T06:54:12.426Z,7.27
2019-03-15T06:55:10.463Z,7.28
2019-03-15T06:56:10.413Z,7.27
2019-03-15T06:57:10.436Z,7.27
2019-03-15T06:58:10.454Z,7.27
2019-03-15T06:59:10.442Z,7.28
2019-03-15T07:00:10.417Z,7.28
2019-03-15T07:01:10.714Z,7.27
2019-03-15T07:02:10.419Z,7.27
2019-03-15T07:03:10.396Z,7.26
2019-03-15T07:04:10.424Z,7.26
2019-03-15T07:05:12.929Z,7.26
2019-03-15T07:06:10.869Z,7.27
2019-03-15T07:07:10.810Z,7.27
2019-03-15T07:08:10.443Z,7.27
2019-03-15T07:09:10.399Z,7.28
2019-03-15T07:10:10.719Z,7.27
2019-03-15T07:11:10.435Z,7.28
2019-03-15T07:12:12.040Z,7.27
2019-03-15T07:13:10.418Z,7.28
2019-03-15T07:14:10.421Z,7.28
2019-03-15T07:15:10.504Z,7.28
2019-03-15T07:16:10.388Z,7.29
2019-03-15T07:17:10.405Z,7.28
2019-03-15T07:18:10.380Z,7.27
2019-03-15T07:19:10.391Z,7.28
2019-03-15T07:20:10.408Z,7.28
2019-03-15T07:21:10.392Z,7.29
2019-03-15T07:22:10.374Z,7.26
2019-03-15T07:23:10.392Z,7.27
2019-03-15T07:24:10.423Z,7.27
2019-03-15T07:25:10.709Z,7.27
2019-03-15T07:26:10.383Z,7.27
2019-03-15T07:27:14.076Z,7.29
2019-03-15T07:28:10.388Z,7.29
2019-03-15T07:29:10.371Z,7.31
2019-03-15T07:30:10.420Z,7.31
2019-03-15T07:31:10.475Z,7.3
2019-03-15T07:32:11.642Z,7.29
2019-03-15T07:33:10.478Z,7.3
2019-03-15T07:34:16.288Z,7.29
2019-03-15T07:35:10.450Z,7.3
2019-03-15T07:36:10.371Z,7.29
2019-03-15T07:37:10.445Z,7.3
2019-03-15T07:38:10.343Z,7.32
2019-03-15T07:39:13.503Z,7.32
2019-03-15T07:40:10.457Z,7.29
2019-03-15T07:41:10.397Z,7.31
2019-03-15T07:42:10.454Z,7.32
2019-03-15T07:43:12.385Z,7.29
2019-03-15T07:44:10.590Z,7.3
2019-03-15T07:45:10.508Z,7.29
2019-03-15T07:46:10.388Z,7.3
2019-03-15T07:47:10.461Z,7.32
2019-03-15T07:48:27.173Z,7.32
2019-03-15T07:49:10.358Z,7.32
2019-03-15T07:50:13.659Z,7.31
2019-03-15T07:51:10.388Z,7.32
2019-03-15T07:52:10.416Z,7.34
2019-03-15T07:53:10.504Z,7.33
2019-03-15T07:54:10.378Z,7.33
2019-03-15T07:55:10.520Z,7.34
2019-03-15T07:56:10.391Z,7.34
2019-03-15T07:57:10.368Z,7.34
2019-03-15T07:58:10.369Z,7.34
2019-03-15T07:59:10.382Z,7.35
2019-03-15T08:00:10.341Z,7.35
2019-03-15T08:01:10.348Z,7.35
2019-03-15T08:02:10.347Z,7.36
2019-03-15T08:03:10.423Z,7.36
2019-03-15T08:04:18.009Z,7.38
2019-03-15T08:05:10.317Z,7.35
2019-03-15T08:06:10.339Z,7.39
2019-03-15T08:07:10.315Z,7.38
2019-03-15T08:08:10.405Z,7.38
2019-03-15T08:09:10.328Z,7.38
2019-03-15T08:10:10.346Z,7.4
2019-03-15T08:11:10.364Z,7.4
2019-03-15T08:12:10.499Z,7.42
2019-03-15T08:13:10.358Z,7.41
2019-03-15T08:14:10.280Z,7.41
2019-03-15T08:15:10.350Z,7.41
2019-03-15T08:16:10.397Z,7.42
2019-03-15T08:17:10.548Z,7.44
2019-03-15T08:18:10.437Z,7.42
2019-03-15T08:19:10.312Z,7.45
2019-03-15T08:20:10.345Z,7.42
2019-03-15T08:21:10.346Z,7.42
2019-03-15T08:22:10.422Z,7.45
2019-03-15T08:23:10.372Z,7.45
2019-03-15T08:24:10.344Z,7.45
2019-03-15T08:25:10.308Z,7.46
2019-03-15T08:26:10.348Z,7.46
2019-03-15T08:27:10.329Z,7.47
2019-03-15T08:28:10.323Z,7.47
2019-03-15T08:29:10.453Z,7.49
2019-03-15T08:30:10.439Z,7.51
2019-03-15T08:31:10.342Z,7.52
2019-03-15T08:32:10.317Z,7.51
2019-03-15T08:33:11.788Z,7.52
2019-03-15T08:34:10.273Z,7.53
2019-03-15T08:35:10.319Z,7.53
2019-03-15T08:36:10.304Z,7.56
2019-03-15T08:37:10.314Z,7.55
2019-03-15T08:38:10.581Z,7.56
2019-03-15T08:39:10.356Z,7.57
2019-03-15T08:40:10.301Z,7.59
2019-03-15T08:41:10.280Z,7.6
2019-03-15T08:42:10.418Z,7.59
2019-03-15T08:43:10.273Z,7.59
2019-03-15T08:44:10.521Z,7.59
2019-03-15T08:45:10.281Z,7.59
2019-03-15T08:46:10.265Z,7.62
2019-03-15T08:47:10.402Z,7.64
2019-03-15T08:48:10.271Z,7.63
2019-03-15T08:49:10.420Z,7.63
2019-03-15T08:50:10.313Z,7.62
2019-03-15T08:51:11.381Z,7.65
2019-03-15T08:52:10.280Z,7.65
2019-03-15T08:53:10.244Z,7.67
2019-03-15T08:54:10.240Z,7.65
2019-03-15T08:55:10.254Z,7.67
2019-03-15T08:56:10.242Z,7.7
2019-03-15T08:57:10.288Z,7.69
2019-03-15T08:58:22.918Z,7.7
2019-03-15T08:59:10.254Z,7.72
2019-03-15T09:00:10.231Z,7.71
2019-03-15T09:01:11.444Z,7.71
2019-03-15T09:02:10.377Z,7.73
2019-03-15T09:03:10.358Z,7.72
2019-03-15T09:04:10.282Z,7.74
2019-03-15T09:05:10.301Z,7.73
2019-03-15T09:06:10.382Z,7.75
2019-03-15T09:07:10.277Z,7.75
2019-03-15T09:08:10.368Z,7.75
2019-03-15T09:09:10.307Z,7.77
2019-03-15T09:10:24.450Z,7.77
2019-03-15T09:11:10.321Z,7.77
2019-03-15T09:12:10.240Z,7.79
2019-03-15T09:13:11.593Z,7.8
2019-03-15T09:14:10.340Z,7.8
2019-03-15T09:15:10.338Z,7.82
2019-03-15T09:16:10.232Z,7.82
2019-03-15T09:17:10.248Z,7.84
2019-03-15T09:18:10.507Z,7.82
2019-03-15T09:19:10.262Z,7.87
2019-03-15T09:20:10.249Z,7.85
2019-03-15T09:21:10.213Z,7.85
2019-03-15T09:22:10.331Z,7.85
2019-03-15T09:23:10.309Z,7.87
2019-03-15T09:24:10.272Z,7.89
2019-03-15T09:25:21.378Z,7.9
2019-03-15T09:26:11.063Z,7.9
2019-03-15T09:27:11.159Z,7.9
2019-03-15T09:28:10.271Z,7.92
2019-03-15T09:29:10.218Z,7.95
2019-03-15T09:30:24.923Z,7.96
2019-03-15T09:31:10.205Z,7.97
2019-03-15T09:32:10.287Z,7.98
2019-03-15T09:33:10.298Z,7.98
2019-03-15T09:34:10.240Z,8
2019-03-15T09:35:10.208Z,7.99
2019-03-15T09:36:10.214Z,8.03
2019-03-15T09:37:10.259Z,8.03
2019-03-15T09:38:11.103Z,8.04
2019-03-15T09:39:10.215Z,8.07
2019-03-15T09:40:10.174Z,8.07
2019-03-15T09:41:10.197Z,8.08
2019-03-15T09:42:10.195Z,8.09
2019-03-15T09:43:10.213Z,8.11
2019-03-15T09:44:12.045Z,8.14
2019-03-15T09:45:10.466Z,8.12
2019-03-15T09:46:10.170Z,8.15
2019-03-15T09:47:10.289Z,8.17
2019-03-15T09:48:10.303Z,8.17
2019-03-15T09:49:10.319Z,8.2
2019-03-15T09:51:10.145Z,8.23
2019-03-15T09:52:10.219Z,8.23
2019-03-15T09:53:10.174Z,8.25
2019-03-15T09:54:10.194Z,8.27
2019-03-15T09:55:10.179Z,8.27
2019-03-15T09:56:10.172Z,8.27
2019-03-15T09:57:10.167Z,8.28
2019-03-15T09:58:10.163Z,8.29
2019-03-15T09:59:10.176Z,8.33
2019-03-15T10:00:10.466Z,8.35
2019-03-15T10:01:13.152Z,8.34
2019-03-15T10:02:10.175Z,8.36
2019-03-15T10:03:22.903Z,8.38
2019-03-15T10:04:10.171Z,8.39
2019-03-15T10:05:12.110Z,8.39
2019-03-15T10:06:19.984Z,8.4
2019-03-15T10:07:10.571Z,8.41
2019-03-15T10:08:10.134Z,8.42
2019-03-15T10:09:10.171Z,8.46
2019-03-15T10:10:19.619Z,8.46
2019-03-15T10:11:10.138Z,8.5
2019-03-15T10:12:10.142Z,8.51
2019-03-15T10:13:10.311Z,8.52
2019-03-15T10:14:10.290Z,8.5
2019-03-15T10:15:10.472Z,8.55
2019-03-15T10:16:10.145Z,8.54
2019-03-15T10:17:10.123Z,8.58
2019-03-15T10:18:10.140Z,8.62
2019-03-15T10:19:10.148Z,8.61
2019-03-15T10:20:13.292Z,8.65
2019-03-15T10:21:10.184Z,8.64
2019-03-15T10:22:10.136Z,8.65
2019-03-15T10:23:10.163Z,8.66
2019-03-15T10:24:10.124Z,8.7
2019-03-15T10:25:10.106Z,8.72
2019-03-15T10:26:10.192Z,8.73
2019-03-15T10:27:10.152Z,8.75
2019-03-15T10:28:10.455Z,8.76
2019-03-15T10:29:19.999Z,8.77
2019-03-15T10:30:10.120Z,8.77
2019-03-15T10:31:10.120Z,8.79
2019-03-15T10:32:10.246Z,8.82
2019-03-15T10:33:10.136Z,8.85
2019-03-15T10:34:10.371Z,8.85
2019-03-15T10:35:10.121Z,8.89
2019-03-15T10:36:10.130Z,8.89
2019-03-15T10:37:10.160Z,8.89
2019-03-15T10:38:10.118Z,8.86
2019-03-15T10:39:10.114Z,8.9
2019-03-15T10:40:10.113Z,8.9
2019-03-15T10:41:10.105Z,8.93
2019-03-15T10:42:10.119Z,8.95
2019-03-15T10:43:10.166Z,8.97
2019-03-15T10:44:10.115Z,9
2019-03-15T10:45:10.104Z,9.03
2019-03-15T10:46:10.085Z,9.03
2019-03-15T10:47:10.092Z,9.09
2019-03-15T10:48:10.116Z,9.09
2019-03-15T10:49:10.124Z,9.11
2019-03-15T10:50:10.152Z,9.1
2019-03-15T10:51:10.487Z,9.11
2019-03-15T10:52:10.092Z,9.11
2019-03-15T10:53:10.093Z,9.15
2019-03-15T10:54:10.138Z,9.21
2019-03-15T10:55:10.261Z,9.2
2019-03-15T10:56:10.124Z,9.19
2019-03-15T10:57:10.093Z,9.22
2019-03-15T10:58:10.166Z,9.23
2019-03-15T10:59:10.145Z,9.23
2019-03-15T11:00:10.101Z,9.28
2019-03-15T11:01:10.136Z,9.29
2019-03-15T11:02:10.108Z,9.29
2019-03-15T11:03:13.482Z,9.3
2019-03-15T11:04:10.118Z,9.3
2019-03-15T11:05:10.163Z,9.3
2019-03-15T11:06:10.067Z,9.34
2019-03-15T11:07:10.118Z,9.36
2019-03-15T11:08:10.076Z,9.37
2019-03-15T11:09:10.425Z,9.39
2019-03-15T11:10:10.075Z,9.4
2019-03-15T11:11:10.117Z,9.41
2019-03-15T11:12:10.066Z,9.42
2019-03-15T11:13:10.121Z,9.43
2019-03-15T11:14:10.081Z,9.44
2019-03-15T11:15:10.119Z,9.45
2019-03-15T11:16:10.120Z,9.47
2019-03-15T11:17:10.105Z,9.47
2019-03-15T11:18:10.061Z,9.5
2019-03-15T11:19:10.086Z,9.5
2019-03-15T11:20:10.084Z,9.53
2019-03-15T11:21:10.049Z,9.52
2019-03-15T11:22:10.138Z,9.53
2019-03-15T11:23:10.127Z,9.59
2019-03-15T11:24:10.073Z,9.58
2019-03-15T11:25:10.102Z,9.61
2019-03-15T11:26:14.561Z,9.62
2019-03-15T11:27:10.060Z,9.66
2019-03-15T11:28:10.105Z,9.67
2019-03-15T11:29:10.157Z,9.7
2019-03-15T11:30:10.227Z,9.73
2019-03-15T11:31:10.158Z,9.73
2019-03-15T11:32:10.063Z,9.78
2019-03-15T11:33:10.112Z,9.8
2019-03-15T11:34:10.030Z,9.8
2019-03-15T11:35:10.134Z,9.78
2019-03-15T11:36:10.085Z,9.82
2019-03-15T11:37:10.032Z,9.85
2019-03-15T11:38:10.058Z,9.84
2019-03-15T11:39:10.064Z,9.83
2019-03-15T11:40:10.064Z,9.83
2019-03-15T11:41:10.040Z,9.85
2019-03-15T11:42:10.050Z,9.89
2019-03-15T11:43:10.016Z,9.89
2019-03-15T11:44:10.016Z,9.89
2019-03-15T11:45:10.012Z,9.86
2019-03-15T11:46:10.034Z,9.9
2019-03-15T11:47:10.415Z,9.89
2019-03-15T11:48:10.081Z,9.87
2019-03-15T11:49:10.178Z,9.91
2019-03-15T11:50:10.016Z,9.92
2019-03-15T11:51:10.118Z,9.94
2019-03-15T11:52:10.033Z,9.97
2019-03-15T11:53:10.003Z,9.99
2019-03-15T11:54:10.045Z,10.03
2019-03-15T11:55:10.044Z,10
2019-03-15T11:56:10.034Z,10.03
2019-03-15T11:57:10.332Z,10.08
2019-03-15T11:58:10.403Z,10.08
2019-03-15T11:59:10.095Z,10.1
2019-03-15T12:00:09.998Z,10.14
2019-03-15T12:01:10.013Z,10.15
2019-03-15T12:02:11.337Z,10.14
2019-03-15T12:03:10.064Z,10.15
2019-03-15T12:04:10.000Z,10.15
2019-03-15T12:05:10.005Z,10.21
2019-03-15T12:06:10.007Z,10.21
2019-03-15T12:07:10.863Z,10.22
2019-03-15T12:08:10.001Z,10.24
2019-03-15T12:09:10.054Z,10.3
2019-03-15T12:10:09.990Z,10.29
2019-03-15T12:11:10.002Z,10.28
2019-03-15T12:12:09.986Z,10.31
2019-03-15T12:13:09.997Z,10.29
2019-03-15T12:14:09.965Z,10.33
2019-03-15T12:15:09.996Z,10.38
2019-03-15T12:16:09.998Z,10.35
2019-03-15T12:17:10.037Z,10.36
2019-03-15T12:18:09.978Z,10.4
2019-03-15T12:19:10.157Z,10.39
2019-03-15T12:20:11.484Z,10.41
2019-03-15T12:21:10.203Z,10.43
2019-03-15T12:22:09.979Z,10.45
2019-03-15T12:23:09.950Z,10.49
2019-03-15T12:24:09.940Z,10.49
2019-03-15T12:25:10.025Z,10.53
2019-03-15T12:26:10.567Z,10.53
2019-03-15T12:27:09.939Z,10.49
2019-03-15T12:28:09.952Z,10.53
2019-03-15T12:29:10.120Z,10.52
2019-03-15T12:30:09.990Z,10.54
2019-03-15T12:31:09.958Z,10.51
2019-03-15T12:32:10.039Z,10.53
2019-03-15T12:33:09.971Z,10.57
2019-03-15T12:34:10.064Z,10.58
2019-03-15T12:35:09.973Z,10.58
2019-03-15T12:36:09.955Z,10.57
2019-03-15T12:37:10.018Z,10.58
2019-03-15T12:38:09.951Z,10.58
2019-03-15T12:39:10.001Z,10.57
2019-03-15T12:40:09.968Z,10.6
2019-03-15T12:41:10.003Z,10.59
2019-03-15T12:42:10.002Z,10.6
2019-03-15T12:43:09.949Z,10.63
2019-03-15T12:44:10.999Z,10.61
2019-03-15T12:45:09.965Z,10.64
2019-03-15T12:46:09.934Z,10.65
2019-03-15T12:47:09.982Z,10.65
2019-03-15T12:48:09.963Z,10.65
2019-03-15T12:49:09.939Z,10.65
2019-03-15T12:50:09.964Z,10.69
2019-03-15T12:51:09.922Z,10.68
2019-03-15T12:52:09.956Z,10.66
2019-03-15T12:53:09.983Z,10.68
2019-03-15T12:54:09.928Z,10.69
2019-03-15T12:55:09.948Z,10.71
2019-03-15T12:56:11.681Z,10.71
2019-03-15T12:57:09.957Z,10.76
2019-03-15T12:58:09.965Z,10.77
2019-03-15T12:59:09.936Z,10.81
2019-03-15T13:00:09.935Z,10.79
2019-03-15T13:01:09.930Z,10.84
2019-03-15T13:02:09.925Z,10.9
2019-03-15T13:03:09.938Z,10.89
2019-03-15T13:04:10.085Z,10.92
2019-03-15T13:05:09.956Z,10.91
2019-03-15T13:06:09.963Z,10.95
2019-03-15T13:07:10.040Z,10.94
2019-03-15T13:08:10.096Z,10.98
2019-03-15T13:09:10.012Z,11
2019-03-15T13:10:10.874Z,11.04
2019-03-15T13:11:09.894Z,11.05
2019-03-15T13:12:09.921Z,11.08
2019-03-15T13:13:09.915Z,11.16
2019-03-15T13:14:09.931Z,11.16
2019-03-15T13:15:09.968Z,11.19
2019-03-15T13:16:09.877Z,11.2
2019-03-15T13:17:09.895Z,11.23
2019-03-15T13:18:09.894Z,11.3
2019-03-15T13:19:09.878Z,11.32